createdAt,value
2022-10-17T00:01:32.154Z,5.47
2022-10-17T00:04:01.813Z,5.15
2022-10-17T00:06:30.716Z,4.95
2022-10-17T00:09:00.981Z,4.32
2022-10-17T00:11:29.851Z,4.70
2022-10-17T00:13:58.744Z,4.78
2022-10-17T00:16:28.742Z,4.25
2022-10-17T00:18:58.075Z,5.10
2022-10-17T00:21:27.534Z,4.13
2022-10-17T00:26:26.392Z,3.53
2022-10-17T00:28:55.656Z,4.00
2022-10-17T00:31:25.487Z,3.30
2022-10-17T00:33:54.921Z,3.63
2022-10-17T00:38:53.642Z,3.03
2022-10-17T00:41:25.469Z,3.88
2022-10-17T00:43:59.628Z,3.00
2022-10-17T00:46:29.367Z,2.85
2022-10-17T00:48:59.057Z,2.72
2022-10-17T00:51:32.344Z,2.58
2022-10-17T00:54:01.724Z,2.63
2022-10-17T00:56:37.005Z,2.42
2022-10-17T00:59:08.673Z,2.70
2022-10-17T01:01:41.872Z,2.80
2022-10-17T01:04:13.404Z,2.60
2022-10-17T01:06:42.293Z,2.83
2022-10-17T01:09:11.218Z,1.95
2022-10-17T01:11:47.067Z,2.00
2022-10-17T01:14:24.978Z,2.83
2022-10-17T01:16:58.576Z,2.45
2022-10-17T01:23:33.422Z,2.15
2022-10-17T01:26:12.017Z,1.80
2022-10-17T01:29:15.915Z,2.10
2022-10-17T01:31:57.694Z,2.17
2022-10-17T01:34:36.514Z,1.83
2022-10-17T01:37:11.693Z,1.85
2022-10-17T01:39:47.801Z,1.88
2022-10-17T01:42:20.878Z,1.90
2022-10-17T01:44:57.709Z,1.92
2022-10-17T01:47:32.817Z,1.98
2022-10-17T01:50:44.554Z,1.85
2022-10-17T01:53:36.408Z,2.13
2022-10-17T01:56:10.213Z,2.08
2022-10-17T01:58:43.440Z,2.58
2022-10-17T02:01:17.300Z,1.70
2022-10-17T02:03:50.366Z,1.85
2022-10-17T02:06:21.152Z,1.52
2022-10-17T02:08:52.844Z,1.60
2022-10-17T02:11:23.598Z,1.65
2022-10-17T02:14:09.238Z,1.67
2022-10-17T02:16:43.508Z,1.58
2022-10-17T02:19:28.172Z,2.13
2022-10-17T02:22:04.872Z,1.88
2022-10-17T02:24:36.605Z,1.60
2022-10-17T02:27:08.158Z,1.38
2022-10-17T02:29:38.981Z,1.70
2022-10-17T02:32:10.706Z,1.75
2022-10-17T02:34:42.707Z,1.65
2022-10-17T02:37:12.880Z,1.50
2022-10-17T02:39:42.151Z,1.77
2022-10-17T02:42:14.526Z,1.90
2022-10-17T02:44:45.178Z,1.85
2022-10-17T02:47:20.332Z,1.98
2022-10-17T02:49:52.692Z,2.15
2022-10-17T02:52:24.939Z,1.83
2022-10-17T02:54:55.477Z,2.08
2022-10-17T02:57:28.469Z,3.00
2022-10-17T02:59:58.104Z,1.83
2022-10-17T03:04:57.639Z,1.85
2022-10-17T03:08:02.826Z,2.00
2022-10-17T03:10:50.482Z,1.80
2022-10-17T03:13:21.006Z,2.20
2022-10-17T03:15:50.053Z,1.70
2022-10-17T03:18:18.947Z,1.80
2022-10-17T03:20:51.368Z,1.75
2022-10-17T03:23:20.439Z,2.17
2022-10-17T03:28:18.637Z,1.50
2022-10-17T03:30:48.208Z,2.28
2022-10-17T03:33:17.338Z,1.80
2022-10-17T03:35:46.197Z,1.90
2022-10-17T03:38:16.860Z,1.73
2022-10-17T03:40:45.727Z,2.03
2022-10-17T03:43:14.590Z,1.83
2022-10-17T03:45:43.665Z,1.98
2022-10-17T03:48:12.500Z,2.83
2022-10-17T03:50:41.785Z,1.90
2022-10-17T03:53:10.646Z,3.10
2022-10-17T03:55:40.885Z,1.75
2022-10-17T03:58:10.239Z,3.58
2022-10-17T04:00:39.175Z,1.80
2022-10-17T04:03:08.093Z,1.95
2022-10-17T04:05:36.980Z,2.30
2022-10-17T04:08:06.347Z,3.63
2022-10-17T04:11:10.141Z,2.35
2022-10-17T04:13:40.138Z,2.17
2022-10-17T04:16:10.209Z,2.15
2022-10-17T04:18:44.169Z,2.00
2022-10-17T04:21:14.171Z,1.73
2022-10-17T04:23:42.996Z,1.85
2022-10-17T04:26:24.555Z,2.35
2022-10-17T04:28:53.602Z,2.20
2022-10-17T04:31:22.821Z,2.65
2022-10-17T04:34:06.361Z,1.95
2022-10-17T04:36:35.600Z,1.80
2022-10-17T04:39:06.053Z,1.95
2022-10-17T04:41:36.636Z,2.38
2022-10-17T04:44:06.624Z,2.05
2022-10-17T04:46:40.218Z,2.50
2022-10-17T04:49:09.150Z,4.40
2022-10-17T04:51:42.275Z,4.93
2022-10-17T04:54:20.073Z,3.53
2022-10-17T04:56:55.220Z,3.47
2022-10-17T04:59:24.154Z,3.78
2022-10-17T05:02:06.816Z,4.40
2022-10-17T05:04:36.535Z,3.13
2022-10-17T05:07:06.420Z,2.65
2022-10-17T05:09:59.006Z,3.40
2022-10-17T05:12:30.165Z,2.80
2022-10-17T05:14:59.288Z,2.55
2022-10-17T05:17:29.881Z,2.80
2022-10-17T05:19:59.172Z,3.03
2022-10-17T05:22:28.256Z,3.05
2022-10-17T05:24:59.191Z,2.30
2022-10-17T05:27:29.592Z,2.53
2022-10-17T05:29:58.472Z,1.52
2022-10-17T05:32:31.480Z,2.60
2022-10-17T05:37:31.500Z,2.33
2022-10-17T05:40:01.739Z,2.72
2022-10-17T05:42:33.844Z,2.20
2022-10-17T05:45:03.774Z,2.78
2022-10-17T05:47:33.054Z,2.60
2022-10-17T05:52:40.565Z,2.15
2022-10-17T05:55:17.052Z,2.25
2022-10-17T06:00:20.542Z,2.42
2022-10-17T06:02:57.502Z,1.95
2022-10-17T06:05:26.811Z,2.03
2022-10-17T06:10:27.209Z,24.38
2022-10-17T06:12:57.730Z,48.10
2022-10-17T06:15:29.614Z,17.33
2022-10-17T06:18:05.951Z,7.47
2022-10-17T06:20:34.946Z,6.50
2022-10-17T06:23:04.341Z,3.55
2022-10-17T06:25:49.131Z,5.03
2022-10-17T06:28:18.548Z,6.78
2022-10-17T06:30:49.465Z,6.70
2022-10-17T06:33:18.430Z,2.75
2022-10-17T06:35:52.680Z,3.20
2022-10-17T06:38:21.782Z,3.33
2022-10-17T06:40:54.583Z,3.10
2022-10-17T06:43:31.528Z,4.65
2022-10-17T06:46:22.019Z,1.98
2022-10-17T06:48:58.195Z,2.88
2022-10-17T06:51:31.879Z,4.28
2022-10-17T06:54:01.254Z,2.40
2022-10-17T06:56:51.356Z,2.47
2022-10-17T06:59:29.498Z,2.67
2022-10-17T07:02:09.299Z,2.70
2022-10-17T07:04:39.114Z,2.38
2022-10-17T07:07:08.113Z,2.42
2022-10-17T07:09:37.360Z,2.72
2022-10-17T07:12:08.504Z,2.20
2022-10-17T07:14:37.876Z,2.15
2022-10-17T07:17:07.148Z,2.20
2022-10-17T07:22:06.733Z,2.08
2022-10-17T07:24:41.043Z,2.38
2022-10-17T07:27:45.245Z,1.88
2022-10-17T07:30:17.493Z,2.10
2022-10-17T07:33:04.938Z,2.53
2022-10-17T07:35:36.752Z,3.30
2022-10-17T07:38:08.632Z,2.30
2022-10-17T07:40:38.878Z,2.20
2022-10-17T07:43:09.722Z,2.30
2022-10-17T07:45:40.862Z,2.58
2022-10-17T07:48:10.959Z,2.50
2022-10-17T07:50:42.605Z,2.38
2022-10-17T07:53:14.155Z,2.60
2022-10-17T07:55:45.001Z,2.30
2022-10-17T07:58:15.624Z,2.08
2022-10-17T08:00:48.531Z,1.88
2022-10-17T08:03:18.784Z,2.10
2022-10-17T08:05:48.869Z,2.88
2022-10-17T08:08:20.364Z,3.08
2022-10-17T08:10:50.991Z,2.63
2022-10-17T08:13:21.167Z,2.17
2022-10-17T08:15:51.356Z,2.80
2022-10-17T08:18:21.477Z,2.45
2022-10-17T08:20:51.554Z,2.70
2022-10-17T08:23:23.096Z,3.30
2022-10-17T08:25:53.232Z,2.10
2022-10-17T08:28:23.396Z,2.83
2022-10-17T08:30:56.026Z,2.50
2022-10-17T08:33:26.082Z,2.38
2022-10-17T08:35:54.792Z,1.98
2022-10-17T08:38:27.783Z,1.93
2022-10-17T08:40:59.130Z,2.00
2022-10-17T08:43:43.494Z,2.53
2022-10-17T08:46:13.264Z,2.33
2022-10-17T08:48:46.703Z,2.47
2022-10-17T08:51:18.008Z,2.38
2022-10-17T08:53:53.522Z,3.33
2022-10-17T08:56:37.028Z,2.42
2022-10-17T08:59:15.824Z,2.60
2022-10-17T09:01:51.036Z,2.20
2022-10-17T09:04:51.617Z,2.35
2022-10-17T09:07:25.055Z,2.53
2022-10-17T09:10:02.188Z,2.47
2022-10-17T09:12:37.550Z,2.63
2022-10-17T09:15:25.267Z,2.55
2022-10-17T09:17:57.331Z,2.33
2022-10-17T09:20:29.234Z,2.75
2022-10-17T09:23:02.439Z,2.38
2022-10-17T09:25:36.614Z,2.38
2022-10-17T09:28:13.787Z,2.00
2022-10-17T09:30:46.370Z,3.08
2022-10-17T09:33:28.814Z,2.03
2022-10-17T09:36:11.530Z,4.90
2022-10-17T09:38:43.482Z,3.05
2022-10-17T09:41:43.560Z,2.72
2022-10-17T09:44:19.313Z,2.75
2022-10-17T09:46:57.230Z,2.08
2022-10-17T09:49:33.931Z,2.72
2022-10-17T09:52:04.141Z,2.08
2022-10-17T09:54:42.782Z,2.67
2022-10-17T09:57:14.076Z,2.42
2022-10-17T09:59:45.512Z,2.45
2022-10-17T10:02:21.065Z,2.00
2022-10-17T10:05:05.884Z,2.42
2022-10-17T10:07:37.938Z,2.00
2022-10-17T10:10:09.890Z,2.28
2022-10-17T10:12:41.042Z,1.92
2022-10-17T10:15:35.232Z,2.05
2022-10-17T10:18:04.287Z,2.42
2022-10-17T10:20:36.039Z,1.90
2022-10-17T10:23:17.458Z,2.50
2022-10-17T10:25:55.898Z,2.25
2022-10-17T10:28:30.607Z,2.63
2022-10-17T10:31:00.882Z,2.20
2022-10-17T10:33:31.079Z,2.55
2022-10-17T10:36:03.529Z,2.75
2022-10-17T10:38:33.014Z,1.98
2022-10-17T10:43:39.439Z,1.83
2022-10-17T10:46:19.500Z,1.75
2022-10-17T10:48:54.493Z,1.95
2022-10-17T10:51:29.469Z,2.05
2022-10-17T10:54:05.097Z,2.03
2022-10-17T10:56:39.828Z,1.75
2022-10-17T10:59:18.957Z,1.83
2022-10-17T11:01:53.414Z,2.28
2022-10-17T11:04:26.016Z,2.22
2022-10-17T11:06:59.616Z,2.10
2022-10-17T11:09:34.017Z,1.77
2022-10-17T11:12:09.234Z,2.13
2022-10-17T11:14:45.523Z,1.92
2022-10-17T11:17:22.667Z,2.08
2022-10-17T11:20:00.360Z,1.55
2022-10-17T11:22:32.689Z,2.17
2022-10-17T11:25:06.329Z,2.10
2022-10-17T11:27:36.102Z,2.35
2022-10-17T11:30:07.728Z,2.78
2022-10-17T11:32:41.305Z,1.83
2022-10-17T11:35:21.259Z,1.77
2022-10-17T11:37:56.568Z,1.60
2022-10-17T11:40:31.871Z,2.17
2022-10-17T11:43:03.187Z,1.42
2022-10-17T11:45:40.530Z,2.00
2022-10-17T11:48:18.551Z,1.95
2022-10-17T11:53:50.857Z,1.88
2022-10-17T11:56:24.364Z,2.17
2022-10-17T11:59:00.133Z,1.83
2022-10-17T12:01:36.716Z,1.92
2022-10-17T12:04:28.686Z,2.45
2022-10-17T12:07:10.999Z,1.80
2022-10-17T12:09:46.219Z,2.55
2022-10-17T12:12:27.533Z,1.80
2022-10-17T12:15:17.380Z,2.05
2022-10-17T12:17:48.468Z,1.90
2022-10-17T12:20:30.618Z,1.95
2022-10-17T12:23:16.324Z,1.70
2022-10-17T12:25:51.326Z,2.10
2022-10-17T12:28:27.295Z,2.22
2022-10-17T12:31:01.869Z,1.60
2022-10-17T12:33:36.043Z,1.42
2022-10-17T12:36:48.117Z,1.80
2022-10-17T12:39:50.637Z,1.45
2022-10-17T12:42:33.874Z,1.77
2022-10-17T12:45:02.589Z,2.30
2022-10-17T12:47:40.258Z,2.05
2022-10-17T12:50:42.641Z,1.52
2022-10-17T12:53:19.829Z,1.42
2022-10-17T12:55:51.954Z,2.03
2022-10-17T12:58:20.665Z,2.17
2022-10-17T13:01:12.085Z,1.67
2022-10-17T13:03:46.369Z,1.73
2022-10-17T13:06:21.901Z,1.85
2022-10-17T13:09:03.312Z,1.60
2022-10-17T13:11:35.305Z,2.22
2022-10-17T13:14:11.875Z,1.50
2022-10-17T13:16:42.936Z,2.70
2022-10-17T13:19:16.495Z,2.38
2022-10-17T13:21:51.955Z,2.30
2022-10-17T13:24:31.002Z,1.98
2022-10-17T13:27:00.276Z,1.90
2022-10-17T13:29:30.972Z,1.63
2022-10-17T13:32:02.609Z,1.75
2022-10-17T13:34:33.742Z,1.67
2022-10-17T13:37:04.568Z,1.80
2022-10-17T13:39:58.022Z,1.40
2022-10-17T13:42:32.364Z,1.63
2022-10-17T13:45:01.648Z,2.22
2022-10-17T13:47:36.552Z,2.33
2022-10-17T13:50:26.336Z,1.40
2022-10-17T13:53:26.699Z,1.83
2022-10-17T13:56:22.931Z,2.10
2022-10-17T13:58:49.895Z,1.67
2022-10-17T14:01:19.596Z,2.53
2022-10-17T14:03:57.063Z,2.10
2022-10-17T14:06:32.402Z,1.42
2022-10-17T14:09:03.916Z,2.85
2022-10-17T14:11:37.398Z,1.77
2022-10-17T14:14:08.898Z,1.75
2022-10-17T14:16:41.302Z,1.65
2022-10-17T14:19:24.822Z,1.85
2022-10-17T14:21:57.043Z,2.28
2022-10-17T14:24:31.701Z,1.67
2022-10-17T14:27:02.506Z,1.60
2022-10-17T14:29:31.889Z,1.73
2022-10-17T14:32:01.942Z,3.63
2022-10-17T14:34:33.037Z,2.15
2022-10-17T14:37:02.269Z,2.97
2022-10-17T14:39:31.432Z,2.35
2022-10-17T14:45:44.117Z,2.15
2022-10-17T14:48:16.256Z,2.25
2022-10-17T14:51:05.292Z,2.10
2022-10-17T14:53:38.371Z,1.75
2022-10-17T14:56:22.498Z,2.40
2022-10-17T14:58:52.229Z,1.70
2022-10-17T15:01:22.727Z,1.77
2022-10-17T15:03:51.598Z,1.88
2022-10-17T15:06:24.239Z,1.95
2022-10-17T15:08:54.589Z,2.40
2022-10-17T15:11:23.387Z,2.50
2022-10-17T15:13:53.135Z,2.22
2022-10-17T15:16:28.651Z,2.10
2022-10-17T15:19:00.895Z,2.42
2022-10-17T15:21:41.864Z,2.13
2022-10-17T15:24:14.111Z,2.00
2022-10-17T15:26:43.115Z,2.20
2022-10-17T15:29:16.406Z,4.07
2022-10-17T15:31:46.782Z,48.95
2022-10-17T15:34:15.633Z,63.60
2022-10-17T15:36:44.956Z,105.72
2022-10-17T15:39:13.867Z,66.97
2022-10-17T15:41:42.961Z,55.72
2022-10-17T15:44:13.094Z,16.05
2022-10-17T15:46:42.885Z,19.48
2022-10-17T15:49:15.816Z,21.05
2022-10-17T15:51:44.837Z,23.25
2022-10-17T15:56:51.833Z,20.88
2022-10-17T15:59:22.420Z,15.63
2022-10-17T16:01:51.487Z,19.88
2022-10-17T16:04:24.096Z,7.82
2022-10-17T16:06:53.267Z,14.38
2022-10-17T16:09:22.124Z,4.93
2022-10-17T16:11:51.395Z,11.30
2022-10-17T16:14:20.357Z,8.95
2022-10-17T16:16:52.146Z,6.07
2022-10-17T16:19:23.164Z,5.47
2022-10-17T16:21:53.255Z,7.07
2022-10-17T16:24:22.180Z,8.52
2022-10-17T16:26:51.295Z,8.60
2022-10-17T16:29:20.250Z,6.25
2022-10-17T16:31:53.225Z,5.47
2022-10-17T16:34:24.630Z,5.18
2022-10-17T16:36:53.650Z,4.65
2022-10-17T16:39:22.635Z,3.10
2022-10-17T16:41:53.674Z,3.20
2022-10-17T16:44:25.178Z,3.22
2022-10-17T16:46:54.109Z,2.88
2022-10-17T16:49:25.826Z,2.95
2022-10-17T16:51:54.936Z,3.00
2022-10-17T16:54:23.795Z,3.10
2022-10-17T16:56:52.863Z,3.40
2022-10-17T16:59:21.800Z,4.05
2022-10-17T17:01:50.907Z,3.25
2022-10-17T17:04:19.946Z,3.75
2022-10-17T17:06:50.409Z,4.05
2022-10-17T17:09:19.270Z,3.58
2022-10-17T17:11:48.120Z,4.50
2022-10-17T17:14:17.349Z,7.80
2022-10-17T17:16:46.142Z,11.35
2022-10-17T17:19:17.180Z,10.98
2022-10-17T17:21:50.311Z,11.20
2022-10-17T17:24:21.191Z,10.18
2022-10-17T17:26:52.794Z,7.50
2022-10-17T17:29:21.791Z,7.40
2022-10-17T17:31:50.973Z,5.82
2022-10-17T17:34:20.188Z,7.15
2022-10-17T17:36:49.243Z,6.80
2022-10-17T17:39:18.621Z,5.53
2022-10-17T17:41:49.561Z,5.20
2022-10-17T17:44:18.512Z,6.80
2022-10-17T17:46:48.092Z,5.25
2022-10-17T17:49:20.549Z,6.20
2022-10-17T17:51:50.346Z,7.60
2022-10-17T17:54:19.484Z,9.00
2022-10-17T17:56:50.049Z,14.95
2022-10-17T17:59:19.059Z,14.68
2022-10-17T18:01:48.133Z,14.77
2022-10-17T18:04:18.439Z,13.85
2022-10-17T18:06:47.431Z,13.88
2022-10-17T18:09:16.333Z,13.50
2022-10-17T18:11:45.359Z,11.43
2022-10-17T18:14:15.793Z,9.15
2022-10-17T18:16:44.686Z,8.25
2022-10-17T18:19:13.653Z,7.72
2022-10-17T18:21:43.311Z,8.48
2022-10-17T18:24:12.606Z,7.50
2022-10-17T18:26:41.489Z,8.40
2022-10-17T18:29:11.886Z,9.73
2022-10-17T18:31:42.319Z,11.07
2022-10-17T18:34:11.712Z,12.38
2022-10-17T18:36:41.146Z,13.27
2022-10-17T18:39:10.835Z,17.15
2022-10-17T18:41:39.766Z,20.08
2022-10-17T18:44:08.771Z,17.88
2022-10-17T18:46:41.006Z,14.38
2022-10-17T18:49:12.018Z,13.35
2022-10-17T18:51:41.201Z,11.13
2022-10-17T18:54:13.325Z,8.35
2022-10-17T18:56:42.428Z,6.78
2022-10-17T18:59:11.600Z,7.72
2022-10-17T19:01:40.681Z,6.28
2022-10-17T19:04:11.369Z,6.10
2022-10-17T19:06:40.997Z,4.95
2022-10-17T19:09:10.795Z,5.22
2022-10-17T19:11:40.234Z,5.82
2022-10-17T19:16:43.318Z,4.93
2022-10-17T19:19:15.226Z,5.97
2022-10-17T19:21:44.106Z,3.40
2022-10-17T19:24:14.837Z,3.65
2022-10-17T19:26:44.140Z,4.50
2022-10-17T19:29:14.778Z,4.75
2022-10-17T19:31:46.686Z,3.88
2022-10-17T19:34:17.491Z,4.18
2022-10-17T19:36:46.732Z,3.83
2022-10-17T19:39:16.544Z,3.67
2022-10-17T19:41:46.013Z,3.17
2022-10-17T19:46:44.536Z,3.73
2022-10-17T19:49:13.730Z,4.10
2022-10-17T19:51:45.620Z,4.45
2022-10-17T19:54:15.242Z,4.88
2022-10-17T20:00:02.676Z,4.17
2022-10-17T20:02:40.268Z,3.97
2022-10-17T20:05:18.546Z,9.77
2022-10-17T20:07:49.748Z,5.35
2022-10-17T20:10:19.665Z,4.53
2022-10-17T20:12:48.489Z,4.25
2022-10-17T20:15:17.316Z,3.95
2022-10-17T20:17:46.520Z,3.78
2022-10-17T20:20:15.469Z,3.30
2022-10-17T20:22:44.362Z,3.50
2022-10-17T20:25:14.857Z,3.50
2022-10-17T20:27:43.941Z,4.47
2022-10-17T20:30:13.282Z,3.75
2022-10-17T20:32:43.421Z,5.00
2022-10-17T20:35:12.591Z,4.03
2022-10-17T20:37:42.730Z,3.75
2022-10-17T20:45:50.555Z,2.80
2022-10-17T20:48:20.506Z,3.80
2022-10-17T20:50:49.687Z,3.88
2022-10-17T20:53:36.088Z,4.07
2022-10-17T20:56:06.747Z,4.18
2022-10-17T20:58:35.809Z,4.25
2022-10-17T21:01:10.534Z,3.33
2022-10-17T21:07:35.082Z,3.72
2022-10-17T21:12:53.968Z,3.17
2022-10-17T21:15:23.490Z,3.42
2022-10-17T21:17:53.594Z,4.00
2022-10-17T21:20:22.295Z,4.07
2022-10-17T21:22:51.040Z,3.10
2022-10-17T21:25:19.872Z,3.22
2022-10-17T21:27:48.544Z,3.35
2022-10-17T21:30:17.288Z,3.15
2022-10-17T21:32:52.087Z,3.65
2022-10-17T21:35:22.494Z,3.65
2022-10-17T21:37:51.229Z,2.65
2022-10-17T21:40:20.239Z,2.30
2022-10-17T21:42:49.163Z,3.17
2022-10-17T21:45:25.448Z,2.75
2022-10-17T21:48:12.109Z,2.90
2022-10-17T21:50:43.252Z,3.00
2022-10-17T21:53:12.351Z,2.30
2022-10-17T21:55:41.047Z,2.95
2022-10-17T21:58:09.913Z,2.70
2022-10-17T22:00:38.715Z,2.30
2022-10-17T22:03:08.702Z,2.63
2022-10-17T22:05:37.468Z,2.40
2022-10-17T22:08:07.915Z,2.35
2022-10-17T22:10:38.627Z,2.58
2022-10-17T22:13:07.727Z,2.67
2022-10-17T22:15:36.523Z,2.38
2022-10-17T22:18:05.338Z,2.88
2022-10-17T22:20:35.424Z,3.13
2022-10-17T22:23:04.367Z,3.05
2022-10-17T22:25:34.484Z,3.17
2022-10-17T22:28:03.218Z,2.95
2022-10-17T22:30:32.105Z,2.88
2022-10-17T22:33:00.827Z,3.40
2022-10-17T22:35:29.734Z,3.38
2022-10-17T22:37:59.529Z,3.72
2022-10-17T22:40:28.289Z,2.97
2022-10-17T22:42:58.580Z,3.05
2022-10-17T22:45:27.421Z,2.90
2022-10-17T22:47:56.271Z,3.50
2022-10-17T22:50:25.675Z,5.10
2022-10-17T22:52:54.364Z,4.43
2022-10-17T22:55:23.071Z,4.35
2022-10-17T22:57:51.731Z,3.93
2022-10-17T23:03:38.979Z,3.28
2022-10-17T23:06:07.962Z,2.90
2022-10-17T23:08:36.656Z,3.33
2022-10-17T23:11:05.465Z,4.60
2022-10-17T23:13:34.179Z,4.35
2022-10-17T23:16:04.771Z,6.03
2022-10-17T23:18:34.789Z,5.53
2022-10-17T23:21:03.709Z,5.57
2022-10-17T23:23:32.628Z,8.52
2022-10-17T23:26:05.292Z,8.52
2022-10-17T23:28:35.735Z,8.35
2022-10-17T23:31:13.090Z,8.02
2022-10-17T23:33:42.018Z,7.07
2022-10-17T23:36:11.126Z,6.45
2022-10-17T23:38:39.968Z,9.07
2022-10-17T23:41:08.959Z,8.05
2022-10-17T23:43:37.857Z,7.28
2022-10-17T23:46:07.073Z,7.47
2022-10-17T23:48:38.533Z,7.70
2022-10-17T23:51:07.802Z,8.23
2022-10-17T23:53:36.547Z,8.82
2022-10-17T23:56:05.443Z,8.05
2022-10-17T23:58:34.179Z,9.30
